• Join FlightAware (Why Join?)
  • Login
  • US Flag 
11:42PM EDT


 

Airport Tracker/Info


-or-


 

Live Flight TrackerFlight Track Log ✈ PRY2 ✈ 07-May-2012 ✈ KOYM - KALO

Flight Track Log - Related Links

Times and Time Zones

All times are in EDT time to prevent confusion due to time zone crossing. See the PRY2 flight status page for this flight to view local times or setup timezone preferences in your user account.

Time Position Orientation Groundspeed Altitude Reporting Facility
EDT Latitude Longitude Course Direction KTS MPH feet Rate Location/Type
04:30PM 41.4133 -78.4761 294° West 159 183 2,600  Level Cleveland Center
04:32PM 41.4419 -78.5611 282° West 88 101 4,400 900 Climbing Cleveland Center
04:33PM 41.4489 -78.6053 279° West 110 127 5,400 900 Climbing Cleveland Center
04:34PM 41.4539 -78.6467 282° West 123 142 6,300 840 Climbing Cleveland Center
04:35PM 41.4608 -78.6906 279° West 123 142 7,100 840 Climbing Cleveland Center
04:36PM 41.4656 -78.7294 283° West 123 142 8,000 900 Climbing Cleveland Center
04:37PM 41.4725 -78.7708 279° West 123 142 8,900 840 Climbing Cleveland Center
04:38PM 41.4772 -78.8094 281° West 123 142 9,700 540 Climbing Cleveland Center
04:39PM 41.4842 -78.8564 284° West 118 136 10,000 120 Climbing Cleveland Center
04:40PM 41.4933 -78.9061 278° West 132 152 10,000 -60 Level Cleveland Center
04:41PM 41.4983 -78.9558 281° West 137 158 9,900  Descending Cleveland Center
04:42PM 41.5050 -79.0028 284° West 137 158 10,000  Climbing Cleveland Center
04:43PM 41.5142 -79.0525 278° West 142 163 10,000 -60 Level Cleveland Center
04:44PM 41.5189 -79.0994 284° West 142 163 9,900  Descending Cleveland Center
04:45PM 41.5278 -79.1464 281° West 142 163 10,000  Climbing Cleveland Center
04:46PM 41.5347 -79.1961 281° West 142 163 10,000  Level Cleveland Center
04:47PM 41.5417 -79.2461 277° West 142 163 10,000  Level Cleveland Center
04:48PM 41.5464 -79.2958 281° West 142 163 10,000  Level Cleveland Center
04:49PM 41.5531 -79.3400 280° West 142 163 10,000  Level Cleveland Center
04:50PM 41.5597 -79.3900 281° West 142 163 10,000  Level Cleveland Center
04:51PM 41.5667 -79.4369 280° West 142 163 10,000  Level Cleveland Center
04:53PM 41.5733 -79.4867 281° West 142 163 10,000  Level Cleveland Center
04:54PM 41.5822 -79.5478 277° West 142 163 10,000 -60 Level Cleveland Center
04:55PM 41.5867 -79.5947 281° West 142 163 9,900  Descending Cleveland Center
04:56PM 41.5933 -79.6419 283° West 142 163 10,000  Climbing Cleveland Center
04:57PM 41.6022 -79.6919 277° West 142 163 10,000  Level Cleveland Center
04:58PM 41.6067 -79.7389 280° West 135 155 10,000  Level Cleveland Center
04:59PM 41.6133 -79.7889 283° West 142 163 10,000 -60 Level Cleveland Center
05:00PM 41.6219 -79.8386 274° West 142 163 9,900  Descending Cleveland Center
05:01PM 41.6244 -79.8858 281° West 142 163 10,000  Climbing Cleveland Center
05:02PM 41.6331 -79.9442 283° West 142 163 10,000  Level Cleveland Center
05:03PM 41.6417 -79.9942 280° West 142 163 10,000  Level Cleveland Center
05:04PM 41.6481 -80.0414 280° West 142 163 10,000  Level Cleveland Center
05:05PM 41.6547 -80.0911 276° West 142 163 10,000 -60 Level Cleveland Center
05:06PM 41.6589 -80.1411 287° West 142 163 9,900  Descending Cleveland Center
05:07PM 41.6675 -80.1800 273° West 142 163 10,000  Climbing Cleveland Center
05:08PM 41.6697 -80.2439 288° West 142 163 10,000  Level Cleveland Center
05:09PM 41.6803 -80.2883 277° West 142 163 10,000  Level Cleveland Center
05:10PM 41.6844 -80.3358 279° West 142 163 10,000 -60 Level Cleveland Center
05:13PM 41.7014 -80.4803 280° West 137 158 9,900  Descending Cleveland Center
05:18PM 41.7347 -80.7333 279° West 142 163 10,000  Climbing Cleveland Center
05:23PM 41.7633 -80.9728 279° West 142 163 10,000  Level Cleveland Center
05:24PM 41.7694 -81.0231 279° West 133 153 10,000 -120 Level Cleveland Center
05:25PM 41.7756 -81.0731 280° West 133 153 9,800 -540 Descending Cleveland Center
05:26PM 41.7817 -81.1178 275° West 144 166 9,000 -840 Descending Cleveland Center
05:27PM 41.7853 -81.1764 285° West 150 173 8,200 -540 Descending Cleveland Center
05:28PM 41.7956 -81.2264 276° West 150 173 8,000 -120 Descending Cleveland Center
05:29PM 41.7994 -81.2767 280° West 145 167 8,000  Level Cleveland Center
05:30PM 41.8053 -81.3214 280° West 140 161 8,000  Level Cleveland Center
05:31PM 41.8114 -81.3689 280° West 140 161 8,000  Level Cleveland Center
05:32PM 41.8172 -81.4133 276° West 135 155 8,000  Level Cleveland Center
05:33PM 41.8211 -81.4636 278° West 130 150 8,000  Level Cleveland Center
05:34PM 41.8269 -81.5167 279° West 130 150 8,000  Level Cleveland Center
05:35PM 41.8328 -81.5642 279° West 130 150 8,000  Level Cleveland Center
05:36PM 41.8386 -81.6144 279° West 135 155 8,000  Level Cleveland Center
05:37PM 41.8444 -81.6617 279° West 135 155 8,000  Level Cleveland Center
05:38PM 41.8503 -81.7119 278° West 140 161 8,000  Level Cleveland Center
05:39PM 41.8558 -81.7625 279° West 145 167 8,000  Level Cleveland Center
05:40PM 41.8617 -81.8128 279° West 140 161 8,000  Level Cleveland Center
05:41PM 41.8675 -81.8603 278° West 140 161 8,000  Level Cleveland Center
05:42PM 41.8711 -81.8964 279° West 140 161 8,000  Level Cleveland Center
05:43PM 41.8786 -81.9608 279° West 140 161 8,000  Level Cleveland Center
05:44PM 41.8844 -82.0111 276° West 140 161 8,000  Level Cleveland Center
05:45PM 41.8881 -82.0558 281° West 140 161 8,000  Level Cleveland Center
05:46PM 41.8956 -82.1061 279° West 140 161 8,000  Level Cleveland Center
05:47PM 41.9031 -82.1706 272° West 140 161 8,000  Level Cleveland Center
05:48PM 41.9044 -82.2236 299° West 146 168 8,000  Level Cleveland Center
05:49PM 41.9125 -82.2433 279° West 136 157 8,000  Level Cleveland Center
05:50PM 41.9200 -82.3078 278° West 137 158 8,000  Level Cleveland Center
05:51PM 41.9253 -82.3581 275° West 136 157 8,000  Level Cleveland Center
05:52PM 41.9286 -82.4114 279° West 136 157 8,000  Level Cleveland Center
05:53PM 41.9342 -82.4589 275° West 138 159 8,000  Level Cleveland Center
05:54PM 41.9375 -82.5092 275° West 139 160 8,000  Level Cleveland Center
05:55PM 41.9408 -82.5622 269° West 138 159 8,000  Level Cleveland Center
05:56PM 41.9400 -82.6153 272° West 139 160 8,000  Level Cleveland Center
05:57PM 41.9411 -82.6656 262° West 138 159 8,000  Level Cleveland Center
05:58PM 41.9358 -82.7186 262° West 137 158 8,000  Level Cleveland Center
05:59PM 41.9308 -82.7686 265° West 135 155 8,000  Level Cleveland Center
06:00PM 41.9278 -82.8186 265° West 136 157 8,000  Level Cleveland Center
06:01PM 41.9247 -82.8689 263° West 135 155 8,000  Level Cleveland Center
06:02PM 41.9194 -82.9272 265° West 136 157 8,000  Level Cleveland Center
06:03PM 41.9164 -82.9719 259° West 136 157 8,000  Level Cleveland Center
06:04PM 41.9089 -83.0217 265° West 136 157 8,000  Level Cleveland Center
06:05PM 41.9058 -83.0692 267° West 136 157 8,000  Level Cleveland Center
06:06PM 41.9028 -83.1467 264° West 134 154 8,000  Level FAA TRACON SMA TRACON (SMA)
06:07PM 41.9000 -83.1800 265° West 134 154 8,000  Level FAA TRACON SMA TRACON (SMA)
06:08PM 41.8981 -83.2086 263° West 136 157 8,000  Level FAA TRACON SMA TRACON (SMA)
06:08PM 41.8947 -83.2472 264° West 136 157 8,000  Level FAA TRACON SMA TRACON (SMA)
06:09PM 41.8919 -83.2808 263° West 134 154 8,000  Level FAA TRACON SMA TRACON (SMA)
06:10PM 41.8889 -83.3133 265° West 135 155 8,000  Level FAA TRACON SMA TRACON (SMA)
06:10PM 41.8869 -83.3436 284° West 137 158 8,000  Level FAA TRACON SMA TRACON (SMA)
06:11PM 41.8942 -83.3831 282° West 143 165 8,000  Level FAA TRACON SMA TRACON (SMA)
06:12PM 41.8994 -83.4156 279° West 139 160 8,000  Level FAA TRACON SMA TRACON (SMA)
06:12PM 41.9039 -83.4514 281° West 139 160 8,000  Level FAA TRACON SMA TRACON (SMA)
06:13PM 41.9089 -83.4864 280° West 143 165 8,000  Level FAA TRACON SMA TRACON (SMA)
06:14PM 41.9128 -83.5167 278° West 138 159 8,000  Level FAA TRACON SMA TRACON (SMA)
06:14PM 41.9164 -83.5497 279° West 137 158 8,000  Level FAA TRACON SMA TRACON (SMA)
06:15PM 41.9208 -83.5886 278° West 137 158 8,000  Level FAA TRACON SMA TRACON (SMA)
06:16PM 41.9244 -83.6222 279° West 138 159 8,000  Level FAA TRACON SMA TRACON (SMA)
06:16PM 41.9281 -83.6522 279° West 139 160 8,000  Level FAA TRACON SMA TRACON (SMA)
06:17PM 41.9325 -83.6903 278° West 136 157 8,000  Level FAA TRACON SMA TRACON (SMA)
06:18PM 41.9361 -83.7231 278° West 138 159 8,000  Level FAA TRACON SMA TRACON (SMA)
06:18PM 41.9400 -83.7586 279° West 139 160 8,000  Level FAA TRACON SMA TRACON (SMA)
06:19PM 41.9433 -83.7864 279° West 140 161 8,000  Level FAA TRACON SMA TRACON (SMA)
06:20PM 41.9481 -83.8261 277° West 140 161 8,000  Level FAA TRACON SMA TRACON (SMA)
06:20PM 41.9514 -83.8625 279° West 141 162 8,000  Level FAA TRACON SMA TRACON (SMA)
06:21PM 41.9556 -83.8964 276° West 137 158 8,000  Level FAA TRACON SMA TRACON (SMA)
06:22PM 41.9583 -83.9294 281° West 138 159 8,000  Level FAA TRACON SMA TRACON (SMA)
06:22PM 41.9628 -83.9611 276° West 139 160 8,000  Level FAA TRACON SMA TRACON (SMA)
06:23PM 41.9656 -83.9961 279° West 141 162 8,000  Level FAA TRACON SMA TRACON (SMA)
06:24PM 41.9700 -84.0339 277° West 142 163 8,000  Level FAA TRACON SMA TRACON (SMA)
06:24PM 41.9733 -84.0694 279° West 140 161 8,000  Level FAA TRACON SMA TRACON (SMA)
06:25PM 41.9772 -84.1042 278° West 140 161 8,000  Level FAA TRACON SMA TRACON (SMA)
06:26PM 41.9803 -84.1339 277° West 140 161 8,000  Level FAA TRACON SMA TRACON (SMA)
06:26PM 41.9842 -84.1739 278° West 140 161 8,000  Level FAA TRACON SMA TRACON (SMA)
06:27PM 41.9881 -84.2092 279° West 141 162 8,000  Level FAA TRACON SMA TRACON (SMA)
06:28PM 41.9919 -84.2428 279° West 142 163 8,000  Level FAA TRACON SMA TRACON (SMA)
06:28PM 41.9961 -84.2786 277° West 140 161 8,000  Level FAA TRACON SMA TRACON (SMA)
06:29PM 41.9989 -84.3094 280° West 139 160 8,000  Level FAA TRACON SMA TRACON (SMA)
06:30PM 42.0031 -84.3414 276° West 137 158 8,000  Level FAA TRACON SMA TRACON (SMA)
06:30PM 42.0064 -84.3817 278° West 139 160 8,000  Level FAA TRACON SMA TRACON (SMA)
06:31PM 42.0100 -84.4156 278° West 137 158 8,000  Level FAA TRACON SMA TRACON (SMA)
06:32PM 42.0133 -84.4481 278° West 138 159 8,000  Level FAA TRACON SMA TRACON (SMA)
06:32PM 42.0167 -84.4797 278° West 139 160 8,000  Level FAA TRACON SMA TRACON (SMA)
06:33PM 42.0197 -84.5089 289° West 138 159 8,000  Level FAA TRACON SMA TRACON (SMA)
06:55PM 42.3056 -85.6547 298° West 147 169 8,000  Level Chicago Center
06:59PM 42.3850 -85.8611 297° West 153 176 8,000  Level Chicago Center
07:00PM 42.4033 -85.9106 296° West 153 176 8,000  Level Chicago Center
07:01PM 42.4214 -85.9603 299° West 153 176 8,000  Level Chicago Center
07:02PM 42.4417 -86.0100 296° West 153 176 8,000  Level Chicago Center
07:03PM 42.4597 -86.0597 295° West 153 176 8,000 -60 Level Chicago Center
07:04PM 42.4756 -86.1067 286° West 153 176 7,900  Descending Chicago Center
07:05PM 42.4875 -86.1625 281° West 153 176 8,000  Climbing Chicago Center
07:06PM 42.4953 -86.2156 285° West 148 170 8,000  Level Chicago Center
07:07PM 42.5072 -86.2742 284° West 148 170 8,000  Level Chicago Center
07:08PM 42.5172 -86.3300 287° West 153 176 8,000  Level Chicago Center
07:09PM 42.5314 -86.3942 282° West 153 176 8,000  Level Chicago Center
07:10PM 42.5389 -86.4417 279° West 158 182 8,000  Level Chicago Center
07:11PM 42.5467 -86.5089 274° West 158 182 8,000  Level Chicago Center
07:14PM 42.5550 -86.6806 272° West 158 182 8,000  Level Chicago Center
07:15PM 42.5561 -86.7311 272° West 158 182 8,000  Level Chicago Center
07:16PM 42.5575 -86.7903 272° West 158 182 8,000  Level Chicago Center
07:19PM 42.5611 -86.9622 272° West 158 182 8,000  Level Chicago Center
07:20PM 42.5625 -87.0214 277° West 158 182 8,000  Level Chicago Center
07:21PM 42.5678 -87.0831 267° West 158 182 8,000  Level Chicago Center
07:22PM 42.5650 -87.1453 271° West 158 182 8,000  Level Chicago Center
07:23PM 42.5658 -87.2017 269° West 158 182 8,000  Level Chicago Center
07:24PM 42.5650 -87.2581 265° West 158 182 8,000  Level Chicago Center
07:25PM 42.5617 -87.3144 272° West 158 182 8,000  Level Chicago Center
07:26PM 42.5628 -87.3708 271° West 158 182 8,000  Level Chicago Center
07:27PM 42.5639 -87.4331 271° West 167 192 8,000 -480 Level Chicago Center
07:31PM 42.5667 -87.6500 270° West 159 183 5,900 -480 Descending KMKE
07:32PM 42.5667 -87.7000 270° West 153 176 5,900  Level KMKE
07:33PM 42.5667 -87.7667 270° West 154 177 5,900  Level KMKE
07:34PM 42.5667 -87.8167 270° West 155 178 5,900  Level KMKE
07:35PM 42.5667 -87.8833 270° West 152 175 5,900  Level KMKE
07:36PM 42.5667 -87.9500 270° West 154 177 5,900  Level KMKE
07:37PM 42.5667 -88.0000 270° West 155 178 5,900  Level KMKE
07:38PM 42.5667 -88.0500 270° West 152 175 5,900  Level KMKE
07:39PM 42.5667 -88.1167 270° West 152 175 5,900  Level KMKE
07:40PM 42.5667 -88.1833 271° West 152 175 5,900 60 Level KMKE
08:01PM 42.5819 -89.3133 270° West 156 180 7,900 60 Climbing Chicago Center
08:05PM 42.5817 -89.5389 273° West 152 175 7,900  Level Chicago Center
08:06PM 42.5836 -89.5922 270° West 152 175 7,900  Level Chicago Center
08:07PM 42.5836 -89.6517 273° West 159 183 7,900  Level Chicago Center
08:08PM 42.5856 -89.7081 270° West 159 183 7,900  Level Chicago Center
08:09PM 42.5853 -89.7672 270° West 159 183 7,900  Level Chicago Center
08:10PM 42.5850 -89.8236 273° West 159 183 7,900  Level Chicago Center
08:11PM 42.5869 -89.8800 270° West 159 183 7,900  Level Chicago Center
08:12PM 42.5867 -89.9392 272° West 159 183 7,900  Level Chicago Center
08:13PM 42.5883 -89.9956 270° West 154 177 7,900  Level Chicago Center
08:14PM 42.5881 -90.0519 267° West 154 177 7,900  Level Chicago Center
08:15PM 42.5856 -90.1083 272° West 159 183 7,900  Level Chicago Center
08:16PM 42.5872 -90.1733 269° West 154 177 7,900  Level Chicago Center
08:17PM 42.5867 -90.2325 270° West 154 177 7,900  Level Chicago Center
08:18PM 42.5864 -90.2861 269° West 154 177 8,000  Climbing Chicago Center
08:19PM 42.5858 -90.3481 269° West 154 177 8,000  Level Chicago Center
08:20PM 42.5853 -90.4017 272° West 154 177 8,000  Level Chicago Center
08:21PM 42.5869 -90.4553 269° West 154 177 8,000  Level Chicago Center
08:22PM 42.5864 -90.5144 269° West 154 177 8,000  Level Chicago Center
08:23PM 42.5858 -90.5708 272° West 154 177 8,000  Level Chicago Center
08:24PM 42.5872 -90.6244 269° West 154 177 8,000  Level Chicago Center
08:25PM 42.5867 -90.6781 269° West 154 177 8,000  Level Chicago Center
08:26PM 42.5861 -90.7344 266° West 154 177 8,000  Level Chicago Center
08:27PM 42.5833 -90.7908 272° West 154 177 8,000  Level Chicago Center
08:28PM 42.5847 -90.8444 269° West 154 177 8,000  Level Chicago Center
08:29PM 42.5839 -90.9036 269° West 154 177 8,000  Level Chicago Center
08:30PM 42.5831 -90.9572 269° West 154 177 8,000  Level Chicago Center
08:31PM 42.5822 -91.0164 269° West 159 183 8,000  Level Chicago Center
08:32PM 42.5814 -91.0728 269° West 159 183 8,000  Level Chicago Center
08:33PM 42.5806 -91.1264 269° West 159 183 8,000  Level Chicago Center
08:34PM 42.5797 -91.1797 272° West 159 183 8,000  Level Chicago Center
08:35PM 42.5811 -91.2333 269° West 159 183 8,000  Level Chicago Center
08:36PM 42.5803 -91.2897 268° West 159 183 8,000 -240 Level Chicago Center
08:37PM 42.5792 -91.3461 269° West 159 183 7,600 -480 Descending Chicago Center
08:38PM 42.5783 -91.3997 271° West 159 183 7,100 -480 Descending Chicago Center
08:39PM 42.5792 -91.4589 269° West 159 183 6,700 -480 Descending Chicago Center
08:40PM 42.5783 -91.5153 266° West 159 183 6,200 -540 Descending Chicago Center
08:41PM 42.5750 -91.5744 268° West 159 183 5,700 -540 Descending Chicago Center
08:42PM 42.5739 -91.6308 271° West 159 183 5,200 -540 Descending Chicago Center
08:43PM 42.5747 -91.6900 266° West 159 183 4,700 -480 Descending Chicago Center
08:44PM 42.5717 -91.7436 268° West 159 183 4,300 -540 Descending Chicago Center
08:45PM 42.5703 -91.8028 266° West 159 183 3,700 -600 Descending Chicago Center
08:52PM 42.5500 -92.1842 270° West  Level FlightAware Approximate
08:53PM 42.5500 -92.2374 270° West  Level FlightAware Approximate
08:54PM 42.5500 -92.2906 270° West  Level FlightAware Approximate
08:55PM 42.5500 -92.3438 270° West  Level FlightAware Approximate
08:56PM 42.5500 -92.3970 341° North  Level FlightAware Approximate
08:57PM 42.5871 -92.4143 164° South  Level Estimated
08:58PM 42.5500 -92.4000 358° North  Level FlightAware Approximate
08:59PM 42.5892 -92.4019 178° South  Level Estimated
09:00PM 42.5500 -92.4000 358° North  Level FlightAware Approximate
09:01PM 42.5892 -92.4019 358° North  Level Estimated